createdAt,value
2018-02-11T00:01:26.464Z,46.70
2018-02-11T00:03:57.294Z,48.53
2018-02-11T00:06:28.277Z,46.77
2018-02-11T00:08:59.157Z,45.03
2018-02-11T00:11:31.033Z,45.30
2018-02-11T00:14:01.906Z,47.83
2018-02-11T00:16:32.905Z,44.60
2018-02-11T00:19:03.733Z,47.55
2018-02-11T00:21:34.625Z,47.80
2018-02-11T00:24:05.528Z,50.50
2018-02-11T00:26:36.433Z,52.30
2018-02-11T00:29:07.245Z,51.40
2018-02-11T00:31:38.172Z,46.10
2018-02-11T00:34:09.047Z,48.63
2018-02-11T00:36:45.937Z,63.70
2018-02-11T00:39:16.780Z,51.17
2018-02-11T00:41:47.709Z,53.60
2018-02-11T00:44:18.599Z,58.57
2018-02-11T00:46:49.796Z,63.13
2018-02-11T00:49:20.788Z,58.17
2018-02-11T00:51:52.369Z,58.40
2018-02-11T00:54:23.429Z,45.97
2018-02-11T00:56:54.388Z,52.10
2018-02-11T00:59:25.462Z,52.30
2018-02-11T01:01:56.472Z,51.10
2018-02-11T01:04:27.330Z,50.50
2018-02-11T01:06:58.238Z,48.03
2018-02-11T01:09:29.069Z,48.40
2018-02-11T01:11:59.999Z,50.37
2018-02-11T01:14:30.896Z,50.77
2018-02-11T01:17:01.793Z,48.30
2018-02-11T01:19:32.693Z,48.80
2018-02-11T01:22:03.643Z,49.07
2018-02-11T01:24:34.456Z,51.87
2018-02-11T01:27:05.344Z,48.43
2018-02-11T01:29:36.213Z,49.13
2018-02-11T01:32:07.054Z,51.63
2018-02-11T01:34:37.909Z,50.73
2018-02-11T01:37:08.729Z,52.03
2018-02-11T01:39:39.589Z,48.73
2018-02-11T01:42:10.437Z,47.93
2018-02-11T01:44:41.256Z,46.40
2018-02-11T01:47:12.413Z,45.77
2018-02-11T01:49:43.282Z,49.13
2018-02-11T01:52:14.142Z,46.10
2018-02-11T01:54:44.988Z,45.07
2018-02-11T01:57:15.877Z,43.87
2018-02-11T01:59:46.722Z,42.77
2018-02-11T02:02:17.558Z,47.60
2018-02-11T02:04:48.415Z,52.03
2018-02-11T02:07:19.233Z,39.67
2018-02-11T02:09:50.150Z,43.13
2018-02-11T02:12:20.950Z,44.70
2018-02-11T02:14:51.825Z,42.60
2018-02-11T02:17:22.685Z,47.13
2018-02-11T02:19:53.516Z,44.27
2018-02-11T02:22:24.341Z,42.10
2018-02-11T02:24:55.205Z,48.17
2018-02-11T02:27:26.106Z,44.27
2018-02-11T02:29:58.758Z,44.50
2018-02-11T02:32:29.585Z,51.80
2018-02-11T02:35:00.441Z,49.60
2018-02-11T02:37:31.250Z,38.83
2018-02-11T02:40:02.241Z,48.40
2018-02-11T02:42:33.105Z,45.83
2018-02-11T02:45:03.948Z,46.70
2018-02-11T02:47:34.796Z,42.53
2018-02-11T02:50:05.723Z,42.93
2018-02-11T02:52:36.577Z,47.80
2018-02-11T02:55:07.417Z,39.63
2018-02-11T02:57:38.237Z,49.90
2018-02-11T03:00:09.104Z,42.23
2018-02-11T03:02:39.898Z,44.83
2018-02-11T03:05:10.837Z,49.03
2018-02-11T03:07:41.623Z,48.87
2018-02-11T03:10:12.543Z,41.50
2018-02-11T03:12:43.405Z,46.90
2018-02-11T03:15:14.260Z,51.10
2018-02-11T03:17:45.258Z,60.33
2018-02-11T03:20:16.161Z,54.92
2018-02-11T03:22:47.069Z,52.17
2018-02-11T03:25:17.888Z,52.40
2018-02-11T03:27:48.742Z,50.67
2018-02-11T03:30:19.761Z,53.60
2018-02-11T03:32:50.606Z,52.58
2018-02-11T03:35:21.454Z,55.00
2018-02-11T03:37:52.322Z,63.90
2018-02-11T03:40:23.189Z,59.20
2018-02-11T03:42:54.031Z,62.93
2018-02-11T03:45:24.869Z,53.47
2018-02-11T03:47:55.709Z,59.93
2018-02-11T03:50:26.545Z,53.90
2018-02-11T03:52:57.429Z,58.53
2018-02-11T03:55:28.265Z,59.00
2018-02-11T03:57:59.115Z,50.30
2018-02-11T04:00:29.948Z,50.60
2018-02-11T04:03:00.785Z,49.20
2018-02-11T04:05:31.704Z,50.73
2018-02-11T04:08:02.560Z,57.70
2018-02-11T04:10:33.432Z,49.53
2018-02-11T04:13:04.336Z,46.70
2018-02-11T04:15:35.182Z,50.23
2018-02-11T04:18:06.014Z,50.77
2018-02-11T04:20:36.854Z,47.83
2018-02-11T04:23:07.686Z,43.00
2018-02-11T04:25:38.527Z,44.63
2018-02-11T04:28:09.394Z,46.70
2018-02-11T04:30:40.200Z,44.43
2018-02-11T04:33:11.144Z,52.53
2018-02-11T04:35:41.953Z,40.77
2018-02-11T04:38:12.808Z,44.33
2018-02-11T04:40:43.707Z,44.47
2018-02-11T04:43:14.550Z,39.77
2018-02-11T04:45:45.359Z,44.13
2018-02-11T04:48:16.230Z,37.27
2018-02-11T04:50:47.092Z,40.17
2018-02-11T04:53:17.993Z,42.67
2018-02-11T04:55:48.806Z,38.63
2018-02-11T04:58:19.641Z,38.50
2018-02-11T05:00:50.485Z,39.87
2018-02-11T05:03:21.402Z,35.90
2018-02-11T05:05:52.199Z,40.33
2018-02-11T05:08:23.079Z,37.53
2018-02-11T05:10:53.895Z,38.67
2018-02-11T05:13:24.747Z,43.00
2018-02-11T05:15:55.586Z,29.93
2018-02-11T05:18:26.465Z,42.13
2018-02-11T05:20:57.303Z,38.50
2018-02-11T05:23:28.346Z,37.93
2018-02-11T05:25:59.179Z,36.03
2018-02-11T05:28:30.038Z,34.77
2018-02-11T05:31:00.853Z,35.60
2018-02-11T05:33:31.735Z,33.90
2018-02-11T05:36:02.556Z,33.60
2018-02-11T05:38:33.477Z,34.77
2018-02-11T05:41:04.312Z,36.33
2018-02-11T05:43:35.137Z,29.80
2018-02-11T05:46:06.005Z,37.53
2018-02-11T05:48:36.846Z,31.13
2018-02-11T05:51:07.677Z,29.60
2018-02-11T05:53:38.516Z,31.93
2018-02-11T05:56:09.366Z,26.63
2018-02-11T05:58:40.222Z,32.47
2018-02-11T06:01:11.065Z,31.23
2018-02-11T06:03:41.976Z,30.47
2018-02-11T06:06:12.809Z,24.30
2018-02-11T06:08:43.726Z,27.60
2018-02-11T06:11:14.556Z,31.90
2018-02-11T06:13:45.453Z,25.43
2018-02-11T06:16:16.337Z,23.30
2018-02-11T06:18:47.189Z,29.53
2018-02-11T06:21:18.041Z,28.23
2018-02-11T06:23:48.903Z,23.73
2018-02-11T06:26:19.808Z,26.47
2018-02-11T06:28:50.632Z,23.10
2018-02-11T06:31:21.547Z,25.20
2018-02-11T06:33:52.384Z,29.47
2018-02-11T06:36:23.288Z,24.53
2018-02-11T06:38:54.217Z,24.87
2018-02-11T06:41:25.118Z,25.50
2018-02-11T06:43:55.969Z,26.83
2018-02-11T06:46:26.813Z,26.47
2018-02-11T06:48:57.743Z,25.40
2018-02-11T06:51:28.611Z,27.57
2018-02-11T06:53:59.551Z,23.40
2018-02-11T06:56:30.438Z,20.57
2018-02-11T06:59:01.334Z,21.53
2018-02-11T07:01:32.217Z,24.60
2018-02-11T07:04:03.130Z,21.30
2018-02-11T07:06:33.991Z,22.47
2018-02-11T07:09:04.846Z,23.40
2018-02-11T07:11:35.758Z,23.13
2018-02-11T07:14:06.620Z,20.63
2018-02-11T07:16:37.530Z,24.37
2018-02-11T07:19:08.532Z,23.43
2018-02-11T07:21:39.335Z,21.27
2018-02-11T07:24:10.271Z,22.50
2018-02-11T07:26:41.090Z,24.50
2018-02-11T07:29:11.958Z,20.97
2018-02-11T07:31:42.829Z,19.60
2018-02-11T07:34:13.678Z,21.07
2018-02-11T07:36:44.553Z,23.70
2018-02-11T07:39:15.459Z,23.33
2018-02-11T07:41:46.303Z,23.50
2018-02-11T07:44:17.197Z,17.93
2018-02-11T07:46:48.119Z,19.07
2018-02-11T07:49:19.052Z,19.10
2018-02-11T07:51:49.923Z,18.10
2018-02-11T07:54:20.743Z,16.40
2018-02-11T07:56:51.570Z,18.43
2018-02-11T07:59:22.492Z,20.07
2018-02-11T08:01:53.337Z,18.23
2018-02-11T08:04:24.236Z,16.60
2018-02-11T08:06:55.045Z,14.90
2018-02-11T08:09:25.944Z,17.13
2018-02-11T08:11:56.782Z,16.30
2018-02-11T08:14:27.744Z,16.10
2018-02-11T08:16:58.627Z,14.47
2018-02-11T08:19:29.500Z,17.17
2018-02-11T08:22:00.350Z,12.90
2018-02-11T08:24:31.230Z,14.93
2018-02-11T08:27:02.123Z,16.50
2018-02-11T08:29:32.997Z,11.60
2018-02-11T08:32:03.868Z,10.87
2018-02-11T08:34:34.755Z,11.43
2018-02-11T08:37:05.614Z,12.50
2018-02-11T08:39:36.459Z,9.97
2018-02-11T08:42:07.317Z,11.23
2018-02-11T08:44:38.204Z,11.30
2018-02-11T08:47:09.026Z,10.50
2018-02-11T08:49:39.843Z,10.77
2018-02-11T08:52:10.749Z,10.20
2018-02-11T08:54:41.589Z,9.50
2018-02-11T08:57:12.408Z,13.83
2018-02-11T08:59:43.271Z,9.93
2018-02-11T09:02:14.112Z,12.17
2018-02-11T09:04:45.016Z,11.10
2018-02-11T09:07:15.853Z,10.47
2018-02-11T09:09:46.695Z,12.90
2018-02-11T09:12:17.544Z,11.47
2018-02-11T09:14:48.393Z,10.23
2018-02-11T09:17:19.224Z,11.37
2018-02-11T09:19:50.157Z,11.17
2018-02-11T09:22:21.087Z,8.70
2018-02-11T09:24:51.898Z,9.50
2018-02-11T09:27:22.749Z,12.23
2018-02-11T09:29:53.545Z,10.10
2018-02-11T09:32:24.382Z,9.33
2018-02-11T09:34:55.265Z,9.20
2018-02-11T09:37:26.074Z,8.87
2018-02-11T09:39:56.955Z,9.50
2018-02-11T09:42:27.818Z,8.73
2018-02-11T09:44:58.660Z,8.67
2018-02-11T09:47:30.545Z,8.53
2018-02-11T09:50:01.417Z,8.23
2018-02-11T09:52:33.352Z,11.40
2018-02-11T09:55:05.239Z,8.52
2018-02-11T09:57:36.089Z,10.82
2018-02-11T10:00:06.919Z,8.60
2018-02-11T10:02:37.755Z,10.17
2018-02-11T10:05:08.591Z,8.80
2018-02-11T10:07:40.513Z,7.90
2018-02-11T10:10:11.344Z,8.52
2018-02-11T10:12:43.164Z,10.27
2018-02-11T10:15:14.296Z,9.82
2018-02-11T10:17:45.147Z,9.02
2018-02-11T10:20:17.143Z,9.50
2018-02-11T10:22:48.025Z,8.18
2018-02-11T10:25:19.605Z,7.77
2018-02-11T10:27:50.436Z,9.55
2018-02-11T10:30:21.283Z,10.13
2018-02-11T10:32:52.144Z,9.13
2018-02-11T10:35:22.968Z,8.87
2018-02-11T10:37:53.789Z,9.17
2018-02-11T10:40:24.705Z,10.00
2018-02-11T10:42:55.550Z,8.73
2018-02-11T10:45:26.393Z,12.87
2018-02-11T10:47:57.194Z,9.90
2018-02-11T10:50:28.101Z,9.70
2018-02-11T10:52:58.945Z,13.43
2018-02-11T10:55:29.790Z,11.67
2018-02-11T10:58:00.586Z,10.13
2018-02-11T11:00:31.508Z,10.90
2018-02-11T11:03:02.367Z,10.10
2018-02-11T11:05:33.331Z,11.10
2018-02-11T11:08:05.150Z,10.43
2018-02-11T11:10:35.976Z,10.90
2018-02-11T11:13:06.807Z,10.43
2018-02-11T11:15:37.705Z,11.17
2018-02-11T11:18:08.495Z,9.60
2018-02-11T11:20:39.369Z,9.70
2018-02-11T11:23:10.190Z,10.50
2018-02-11T11:25:41.049Z,12.10
2018-02-11T11:28:11.882Z,12.03
2018-02-11T11:30:42.721Z,11.90
2018-02-11T11:33:13.649Z,10.37
2018-02-11T11:35:44.625Z,12.30
2018-02-11T11:38:15.484Z,12.80
2018-02-11T11:40:46.401Z,14.67
2018-02-11T11:43:17.216Z,10.50
2018-02-11T11:45:48.089Z,13.50
2018-02-11T11:48:18.929Z,13.80
2018-02-11T11:50:49.745Z,11.67
2018-02-11T11:53:20.562Z,11.67
2018-02-11T11:55:51.424Z,11.90
2018-02-11T11:58:22.277Z,11.60
2018-02-11T12:00:53.176Z,12.40
2018-02-11T12:03:24.032Z,12.50
2018-02-11T12:05:54.870Z,13.90
2018-02-11T12:08:25.785Z,11.60
2018-02-11T12:10:56.684Z,13.13
2018-02-11T12:13:27.502Z,11.40
2018-02-11T12:15:58.342Z,12.90
2018-02-11T12:18:29.192Z,12.67
2018-02-11T12:21:00.091Z,13.37
2018-02-11T12:23:30.957Z,16.07
2018-02-11T12:26:01.818Z,12.83
2018-02-11T12:28:32.719Z,11.80
2018-02-11T12:31:03.652Z,11.60
2018-02-11T12:33:34.444Z,13.77
2018-02-11T12:36:05.316Z,12.23
2018-02-11T12:38:37.301Z,12.40
2018-02-11T12:41:08.192Z,12.60
2018-02-11T12:43:39.084Z,14.03
2018-02-11T12:46:09.948Z,14.80
2018-02-11T12:48:40.849Z,14.43
2018-02-11T12:51:11.725Z,12.67
2018-02-11T12:53:43.407Z,13.05
2018-02-11T12:56:14.405Z,15.83
2018-02-11T12:58:45.262Z,14.07
2018-02-11T13:01:16.210Z,13.37
2018-02-11T13:03:49.150Z,14.13
2018-02-11T13:06:20.037Z,15.90
2018-02-11T13:08:50.881Z,15.23
2018-02-11T13:11:22.455Z,14.77
2018-02-11T13:13:53.389Z,12.95
2018-02-11T13:16:24.351Z,12.63
2018-02-11T13:18:55.174Z,15.10
2018-02-11T13:21:26.090Z,12.90
2018-02-11T13:23:56.938Z,15.27
2018-02-11T13:26:27.844Z,14.63
2018-02-11T13:28:58.715Z,15.30
2018-02-11T13:31:29.553Z,14.87
2018-02-11T13:34:00.420Z,14.93
2018-02-11T13:36:31.307Z,16.27
2018-02-11T13:39:02.192Z,16.20
2018-02-11T13:41:33.070Z,16.57
2018-02-11T13:44:03.919Z,18.57
2018-02-11T13:46:34.785Z,15.47
2018-02-11T13:49:05.625Z,15.67
2018-02-11T13:51:36.574Z,15.27
2018-02-11T13:54:07.423Z,19.80
2018-02-11T13:56:38.327Z,19.03
2018-02-11T13:59:09.172Z,17.60
2018-02-11T14:01:40.087Z,19.13
2018-02-11T14:04:10.907Z,18.93
2018-02-11T14:06:41.840Z,20.33
2018-02-11T14:09:12.725Z,18.83
2018-02-11T14:11:43.589Z,18.90
2018-02-11T14:14:14.535Z,19.40
2018-02-11T14:16:45.370Z,16.40
2018-02-11T14:19:16.227Z,18.50
2018-02-11T14:21:47.067Z,24.20
2018-02-11T14:24:17.916Z,21.67
2018-02-11T14:26:48.724Z,18.30
2018-02-11T14:29:19.513Z,20.60
2018-02-11T14:31:50.429Z,22.10
2018-02-11T14:34:21.262Z,17.97
2018-02-11T14:36:58.762Z,20.10
2018-02-11T14:39:29.640Z,21.08
2018-02-11T14:42:01.979Z,23.30
2018-02-11T14:44:33.081Z,21.17
2018-02-11T14:47:04.112Z,21.27
2018-02-11T14:49:35.465Z,21.60
2018-02-11T14:52:08.144Z,28.10
2018-02-11T14:54:39.048Z,23.38
2018-02-11T14:57:09.903Z,37.00
2018-02-11T14:59:40.906Z,28.63
2018-02-11T15:02:11.701Z,21.60
2018-02-11T15:04:42.552Z,18.63
2018-02-11T15:07:13.404Z,21.70
2018-02-11T15:09:44.177Z,21.43
2018-02-11T15:12:15.096Z,23.93
2018-02-11T15:14:45.852Z,25.70
2018-02-11T15:17:17.055Z,24.30
2018-02-11T15:19:47.916Z,23.10
2018-02-11T15:22:18.761Z,19.90
2018-02-11T15:24:49.801Z,20.47
2018-02-11T15:27:20.572Z,19.65
2018-02-11T15:29:51.356Z,23.10
2018-02-11T15:32:26.221Z,23.40
2018-02-11T15:34:56.984Z,23.40
2018-02-11T15:37:27.755Z,29.80
2018-02-11T15:39:58.536Z,21.07
2018-02-11T15:42:30.460Z,24.20
2018-02-11T15:45:01.291Z,24.98
2018-02-11T15:47:32.341Z,21.20
2018-02-11T15:50:03.180Z,24.15
2018-02-11T15:52:34.020Z,20.90
2018-02-11T15:55:04.783Z,29.17
2018-02-11T15:57:35.545Z,31.03
2018-02-11T16:00:06.469Z,34.10
2018-02-11T16:02:37.656Z,22.77
2018-02-11T16:05:08.420Z,22.85
2018-02-11T16:07:39.264Z,22.60
2018-02-11T16:10:10.124Z,25.70
2018-02-11T16:12:40.915Z,26.43
2018-02-11T16:15:11.724Z,22.77
2018-02-11T16:17:42.505Z,28.93
2018-02-11T16:20:13.378Z,25.03
2018-02-11T16:22:44.184Z,24.83
2018-02-11T16:25:14.945Z,22.87
2018-02-11T16:27:45.789Z,20.87
2018-02-11T16:30:16.592Z,23.77
2018-02-11T16:32:47.453Z,23.57
2018-02-11T16:35:18.208Z,21.67
2018-02-11T16:37:49.001Z,27.10
2018-02-11T16:40:19.761Z,25.37
2018-02-11T16:42:50.585Z,24.63
2018-02-11T16:45:21.361Z,23.70
2018-02-11T16:47:52.154Z,24.83
2018-02-11T16:50:22.911Z,22.97
2018-02-11T16:52:53.700Z,26.50
2018-02-11T16:55:24.491Z,23.97
2018-02-11T16:57:55.292Z,30.30
2018-02-11T17:00:26.092Z,24.10
2018-02-11T17:02:56.995Z,22.80
2018-02-11T17:05:27.816Z,26.03
2018-02-11T17:07:58.529Z,24.90
2018-02-11T17:10:29.297Z,24.90
2018-02-11T17:13:00.105Z,27.63
2018-02-11T17:15:30.868Z,27.47
2018-02-11T17:18:01.644Z,22.53
2018-02-11T17:20:32.414Z,27.00
2018-02-11T17:23:03.222Z,26.83
2018-02-11T17:25:33.980Z,27.90
2018-02-11T17:28:04.784Z,28.07
2018-02-11T17:30:35.519Z,24.83
2018-02-11T17:33:06.317Z,28.07
2018-02-11T17:35:37.063Z,32.03
2018-02-11T17:38:07.900Z,27.10
2018-02-11T17:40:38.660Z,38.97
2018-02-11T17:43:09.432Z,32.07
2018-02-11T17:45:40.198Z,26.40
2018-02-11T17:48:10.999Z,27.50
2018-02-11T17:50:41.775Z,24.20
2018-02-11T17:53:12.604Z,29.93
2018-02-11T17:55:43.400Z,24.57
2018-02-11T17:58:14.236Z,23.40
2018-02-11T18:00:44.997Z,22.07
2018-02-11T18:03:16.857Z,28.20
2018-02-11T18:05:47.601Z,25.33
2018-02-11T18:08:18.809Z,25.20
2018-02-11T18:10:49.220Z,23.00
2018-02-11T18:13:19.995Z,21.80
2018-02-11T18:15:50.756Z,22.37
2018-02-11T18:18:21.536Z,21.87
2018-02-11T18:20:52.292Z,24.37
2018-02-11T18:23:23.032Z,22.00
2018-02-11T18:25:53.794Z,23.67
2018-02-11T18:28:24.535Z,26.53
2018-02-11T18:30:57.381Z,24.83
2018-02-11T18:33:28.123Z,27.17
2018-02-11T18:35:58.924Z,25.93
2018-02-11T18:38:29.652Z,22.13
2018-02-11T18:41:00.422Z,23.90
2018-02-11T18:43:31.240Z,24.07
2018-02-11T18:46:02.022Z,21.37
2018-02-11T18:48:32.788Z,24.53
2018-02-11T18:51:03.559Z,24.63
2018-02-11T18:53:34.328Z,25.00
2018-02-11T18:56:05.124Z,19.87
2018-02-11T18:58:35.985Z,22.53
2018-02-11T19:01:06.797Z,23.37
2018-02-11T19:03:37.555Z,21.53
2018-02-11T19:06:08.329Z,23.27
2018-02-11T19:08:39.146Z,22.53
2018-02-11T19:11:10.034Z,23.10
2018-02-11T19:13:40.849Z,24.00
2018-02-11T19:16:11.670Z,26.03
2018-02-11T19:18:42.472Z,23.30
2018-02-11T19:21:13.383Z,22.07
2018-02-11T19:23:44.217Z,26.27
2018-02-11T19:26:15.045Z,22.17
2018-02-11T19:28:45.988Z,20.17
2018-02-11T19:31:16.788Z,23.87
2018-02-11T19:33:54.263Z,24.23
2018-02-11T19:36:27.106Z,24.45
2018-02-11T19:39:00.028Z,20.33
2018-02-11T19:41:32.012Z,22.95
2018-02-11T19:44:02.828Z,26.70
2018-02-11T19:46:33.619Z,25.50
2018-02-11T19:49:08.613Z,22.43
2018-02-11T19:51:39.812Z,24.58
2018-02-11T19:54:15.370Z,21.90
2018-02-11T19:56:46.394Z,22.30
2018-02-11T19:59:19.169Z,19.45
2018-02-11T20:01:50.196Z,23.00
2018-02-11T20:04:21.385Z,25.37
2018-02-11T20:06:52.472Z,23.93
2018-02-11T20:09:23.576Z,24.63
2018-02-11T20:11:54.678Z,19.27
2018-02-11T20:14:33.044Z,23.10
2018-02-11T20:17:04.816Z,24.65
2018-02-11T20:19:35.840Z,21.73
2018-02-11T20:22:06.652Z,29.20
2018-02-11T20:24:37.448Z,27.10
2018-02-11T20:27:08.216Z,25.40
2018-02-11T20:29:39.006Z,27.13
2018-02-11T20:32:09.992Z,28.50
2018-02-11T20:34:40.848Z,27.13
2018-02-11T20:37:11.765Z,27.70
2018-02-11T20:39:42.576Z,28.40
2018-02-11T20:42:13.420Z,23.90
2018-02-11T20:44:44.293Z,34.97
2018-02-11T20:47:15.440Z,24.30
2018-02-11T20:49:46.391Z,22.37
2018-02-11T20:52:17.294Z,21.07
2018-02-11T20:54:48.108Z,19.17
2018-02-11T20:57:18.884Z,22.50
2018-02-11T20:59:49.721Z,20.37
2018-02-11T21:02:24.209Z,21.90
2018-02-11T21:04:55.024Z,24.58
2018-02-11T21:07:25.825Z,25.17
2018-02-11T21:09:56.632Z,22.87
2018-02-11T21:12:27.494Z,19.70
2018-02-11T21:14:58.399Z,20.17
2018-02-11T21:17:29.253Z,18.33
2018-02-11T21:20:00.092Z,18.00
2018-02-11T21:22:30.937Z,16.67
2018-02-11T21:25:01.685Z,17.60
2018-02-11T21:27:32.670Z,16.27
2018-02-11T21:30:03.416Z,17.52
2018-02-11T21:32:34.158Z,18.73
2018-02-11T21:35:04.989Z,20.30
2018-02-11T21:37:35.777Z,18.50
2018-02-11T21:40:16.760Z,18.00
2018-02-11T21:42:53.467Z,17.08
2018-02-11T21:45:32.960Z,15.48
2018-02-11T21:48:03.841Z,17.45
2018-02-11T21:50:41.469Z,15.80
2018-02-11T21:53:12.260Z,16.00
2018-02-11T21:55:43.032Z,17.23
2018-02-11T21:58:15.963Z,17.30
2018-02-11T22:00:46.667Z,14.45
2018-02-11T22:03:17.475Z,17.73
2018-02-11T22:05:48.269Z,15.57
2018-02-11T22:08:19.067Z,16.90
2018-02-11T22:10:49.878Z,13.57
2018-02-11T22:13:25.672Z,17.10
2018-02-11T22:15:56.707Z,15.45
2018-02-11T22:18:27.682Z,18.98
2018-02-11T22:20:58.986Z,16.25
2018-02-11T22:23:30.481Z,18.20
2018-02-11T22:26:01.335Z,17.87
2018-02-11T22:28:32.930Z,19.77
2018-02-11T22:31:05.488Z,17.85
2018-02-11T22:33:36.998Z,17.95
2018-02-11T22:36:15.457Z,18.00
2018-02-11T22:38:46.435Z,21.73
2018-02-11T22:41:19.331Z,17.80
2018-02-11T22:43:50.216Z,19.75
2018-02-11T22:46:34.039Z,19.00
2018-02-11T22:49:04.960Z,16.45
2018-02-11T22:51:35.828Z,18.87
2018-02-11T22:54:06.609Z,19.30
2018-02-11T22:56:42.280Z,17.60
2018-02-11T22:59:13.049Z,18.15
2018-02-11T23:01:45.949Z,18.77
2018-02-11T23:04:16.851Z,16.45
2018-02-11T23:06:47.834Z,17.10
2018-02-11T23:09:18.664Z,20.58
2018-02-11T23:11:49.496Z,21.93
2018-02-11T23:14:22.497Z,16.60
2018-02-11T23:16:53.457Z,16.75
2018-02-11T23:19:24.288Z,15.97
2018-02-11T23:21:55.200Z,20.07
2018-02-11T23:24:26.140Z,17.10
2018-02-11T23:26:57.004Z,15.60
2018-02-11T23:29:46.988Z,20.20
2018-02-11T23:32:17.785Z,17.77
2018-02-11T23:34:55.111Z,17.43
2018-02-11T23:37:25.900Z,17.80
2018-02-11T23:39:56.679Z,19.13
2018-02-11T23:42:27.675Z,14.20
2018-02-11T23:44:58.475Z,16.40
2018-02-11T23:47:29.388Z,16.77
2018-02-11T23:50:00.172Z,15.70
2018-02-11T23:52:31.265Z,13.20
2018-02-11T23:55:02.160Z,17.83
2018-02-11T23:57:33.005Z,14.90
